SRV160M SBSP-SBRJ
Flight info
| Callsign | SRV160M |
|---|---|
| Flight time | 0h 36m |
| Altitude | 25000 |
| Route | NIBRU UZ171 KEVUN |
| Aircraft | B738/M-SDE2E3FGHIRWXY/LB1 |
Departure
| Time | 2026-05-08 00:19 |
|---|---|
| Airport | Congonhas–Deputado Freitas Nobre Airport (SBSP) |
Arrival
| Time | 2026-05-08 00:56 |
|---|---|
| Airport | Santos Dumont Airport (SBRJ) |
| Time | Latitude | Longitude | Altitude | Speed | Heading |
|---|---|---|---|---|---|
| 2026-05-08 00:01 | -23.62814 | -46.65755 | 2607 ft | 0 kts | 237° |
| 2026-05-08 00:09 | -23.62811 | -46.65751 | 2600 ft | 3 kts | 237° |
| 2026-05-08 00:10 | -23.62798 | -46.65731 | 2600 ft | 4 kts | 212° |
| 2026-05-08 00:10 | -23.62777 | -46.65728 | 2600 ft | 4 kts | 154° |
| 2026-05-08 00:10 | -23.62762 | -46.65737 | 2600 ft | 1 kts | 147° |
| 2026-05-08 00:10 | -23.62760 | -46.65738 | 2600 ft | 0 kts | 147° |
| 2026-05-08 00:13 | -23.62769 | -46.65732 | 2600 ft | 5 kts | 147° |
| 2026-05-08 00:13 | -23.62812 | -46.65702 | 2600 ft | 8 kts | 146° |
| 2026-05-08 00:13 | -23.62851 | -46.65635 | 2599 ft | 8 kts | 121° |
| 2026-05-08 00:14 | -23.62878 | -46.65608 | 2599 ft | 8 kts | 146° |
| 2026-05-08 00:14 | -23.62923 | -46.65577 | 2599 ft | 8 kts | 147° |
| 2026-05-08 00:14 | -23.62969 | -46.65544 | 2599 ft | 9 kts | 147° |
| 2026-05-08 00:14 | -23.63027 | -46.65520 | 2599 ft | 9 kts | 174° |
| 2026-05-08 00:15 | -23.63084 | -46.65501 | 2600 ft | 9 kts | 150° |
| 2026-05-08 00:15 | -23.63135 | -46.65467 | 2600 ft | 8 kts | 147° |
| 2026-05-08 00:15 | -23.63184 | -46.65433 | 2600 ft | 9 kts | 148° |
| 2026-05-08 00:15 | -23.63242 | -46.65393 | 2600 ft | 11 kts | 147° |
| 2026-05-08 00:16 | -23.63318 | -46.65339 | 2600 ft | 15 kts | 147° |
| 2026-05-08 00:16 | -23.63405 | -46.65279 | 2600 ft | 14 kts | 147° |
| 2026-05-08 00:16 | -23.63479 | -46.65227 | 2600 ft | 8 kts | 147° |
| 2026-05-08 00:16 | -23.63485 | -46.65223 | 2600 ft | 0 kts | 147° |
| 2026-05-08 00:17 | -23.63486 | -46.65222 | 2600 ft | 2 kts | 147° |
| 2026-05-08 00:17 | -23.63508 | -46.65196 | 2600 ft | 6 kts | 113° |
| 2026-05-08 00:17 | -23.63494 | -46.65143 | 2600 ft | 8 kts | 60° |
| 2026-05-08 00:18 | -23.63462 | -46.65095 | 2599 ft | 6 kts | 29° |
| 2026-05-08 00:18 | -23.63437 | -46.65114 | 2599 ft | 5 kts | 317° |
| 2026-05-08 00:18 | -23.63433 | -46.65117 | 2599 ft | 0 kts | 327° |
| 2026-05-08 00:18 | -23.63363 | -46.65164 | 2600 ft | 44 kts | 328° |
| 2026-05-08 00:19 | -23.62883 | -46.65496 | 2598 ft | 118 kts | 327° |
| 2026-05-08 00:19 | -23.62011 | -46.66102 | 2630 ft | 176 kts | 329° |
| 2026-05-08 00:19 | -23.60914 | -46.66834 | 3403 ft | 184 kts | 331° |
| 2026-05-08 00:19 | -23.59868 | -46.67395 | 4710 ft | 161 kts | 353° |
| 2026-05-08 00:20 | -23.58767 | -46.67062 | 5234 ft | 182 kts | 36° |
| 2026-05-08 00:20 | -23.58025 | -46.65827 | 5487 ft | 217 kts | 66° |
| 2026-05-08 00:20 | -23.57973 | -46.64083 | 5506 ft | 245 kts | 102° |
| 2026-05-08 00:20 | -23.58838 | -46.62427 | 5517 ft | 258 kts | 123° |
| 2026-05-08 00:21 | -23.59911 | -46.60842 | 5475 ft | 260 kts | 122° |
| 2026-05-08 00:21 | -23.60635 | -46.59030 | 5543 ft | 273 kts | 99° |
| 2026-05-08 00:21 | -23.61080 | -46.56939 | 5500 ft | 287 kts | 101° |
| 2026-05-08 00:21 | -23.61930 | -46.54983 | 5501 ft | 297 kts | 128° |
| 2026-05-08 00:22 | -23.63403 | -46.53372 | 6028 ft | 302 kts | 135° |
| 2026-05-08 00:22 | -23.64928 | -46.51792 | 6892 ft | 302 kts | 135° |
| 2026-05-08 00:22 | -23.66448 | -46.50204 | 7707 ft | 304 kts | 134° |
| 2026-05-08 00:22 | -23.67977 | -46.48594 | 8475 ft | 307 kts | 134° |
| 2026-05-08 00:23 | -23.69521 | -46.46959 | 9228 ft | 311 kts | 133° |
| 2026-05-08 00:23 | -23.70754 | -46.45038 | 9977 ft | 310 kts | 108° |
| 2026-05-08 00:23 | -23.71170 | -46.42748 | 10514 ft | 314 kts | 85° |
| 2026-05-08 00:23 | -23.70928 | -46.40311 | 10690 ft | 334 kts | 77° |
| 2026-05-08 00:24 | -23.70538 | -46.37728 | 10848 ft | 355 kts | 77° |
| 2026-05-08 00:24 | -23.70108 | -46.34996 | 11000 ft | 375 kts | 77° |
| 2026-05-08 00:24 | -23.69670 | -46.32148 | 11397 ft | 384 kts | 78° |
| 2026-05-08 00:24 | -23.69241 | -46.29246 | 12010 ft | 386 kts | 78° |
| 2026-05-08 00:25 | -23.68821 | -46.26348 | 12667 ft | 387 kts | 78° |
| 2026-05-08 00:25 | -23.68403 | -46.23432 | 13246 ft | 390 kts | 78° |
| 2026-05-08 00:25 | -23.67989 | -46.20533 | 13771 ft | 393 kts | 79° |
| 2026-05-08 00:25 | -23.67566 | -46.17576 | 14253 ft | 396 kts | 79° |
| 2026-05-08 00:26 | -23.67138 | -46.14594 | 14722 ft | 399 kts | 79° |
| 2026-05-08 00:26 | -23.66706 | -46.11591 | 15192 ft | 402 kts | 79° |
| 2026-05-08 00:26 | -23.66272 | -46.08566 | 15647 ft | 404 kts | 79° |
| 2026-05-08 00:26 | -23.65834 | -46.05524 | 16118 ft | 407 kts | 79° |
| 2026-05-08 00:27 | -23.65392 | -46.02451 | 16558 ft | 411 kts | 79° |
| 2026-05-08 00:27 | -23.64947 | -45.99364 | 17010 ft | 414 kts | 79° |
| 2026-05-08 00:27 | -23.64499 | -45.96252 | 17466 ft | 416 kts | 79° |
| 2026-05-08 00:27 | -23.64047 | -45.93122 | 17887 ft | 419 kts | 79° |
| 2026-05-08 00:28 | -23.63591 | -45.89968 | 18296 ft | 422 kts | 79° |
| 2026-05-08 00:28 | -23.63132 | -45.86796 | 18642 ft | 426 kts | 79° |
| 2026-05-08 00:28 | -23.62667 | -45.83593 | 18971 ft | 429 kts | 79° |
| 2026-05-08 00:28 | -23.62199 | -45.80368 | 19290 ft | 433 kts | 79° |
| 2026-05-08 00:29 | -23.61731 | -45.77149 | 19611 ft | 437 kts | 80° |
| 2026-05-08 00:29 | -23.61254 | -45.73869 | 19938 ft | 440 kts | 80° |
| 2026-05-08 00:29 | -23.60771 | -45.70560 | 20260 ft | 443 kts | 80° |
| 2026-05-08 00:29 | -23.60285 | -45.67229 | 20586 ft | 447 kts | 80° |
| 2026-05-08 00:30 | -23.59794 | -45.63875 | 20899 ft | 450 kts | 80° |
| 2026-05-08 00:30 | -23.59299 | -45.60494 | 21199 ft | 453 kts | 80° |
| 2026-05-08 00:30 | -23.58799 | -45.57090 | 21529 ft | 456 kts | 80° |
| 2026-05-08 00:30 | -23.58296 | -45.53662 | 21821 ft | 460 kts | 81° |
| 2026-05-08 00:31 | -23.57788 | -45.50210 | 22113 ft | 463 kts | 81° |
| 2026-05-08 00:31 | -23.57272 | -45.46737 | 22405 ft | 466 kts | 80° |
| 2026-05-08 00:31 | -23.56645 | -45.43264 | 22691 ft | 469 kts | 77° |
| 2026-05-08 00:31 | -23.55914 | -45.39792 | 22974 ft | 472 kts | 76° |
| 2026-05-08 00:32 | -23.55139 | -45.36304 | 23261 ft | 475 kts | 76° |
| 2026-05-08 00:32 | -23.54357 | -45.32798 | 23524 ft | 477 kts | 76° |
| 2026-05-08 00:32 | -23.53582 | -45.29272 | 23763 ft | 480 kts | 76° |
| 2026-05-08 00:32 | -23.52814 | -45.25726 | 24013 ft | 482 kts | 77° |
| 2026-05-08 00:33 | -23.52054 | -45.22171 | 24309 ft | 482 kts | 77° |
| 2026-05-08 00:33 | -23.51298 | -45.18616 | 24646 ft | 482 kts | 77° |
| 2026-05-08 00:33 | -23.50543 | -45.15061 | 24928 ft | 482 kts | 77° |
| 2026-05-08 00:33 | -23.49782 | -45.11484 | 24995 ft | 486 kts | 77° |
| 2026-05-08 00:34 | -23.49014 | -45.07880 | 24999 ft | 491 kts | 77° |
| 2026-05-08 00:34 | -23.48237 | -45.04244 | 24996 ft | 495 kts | 77° |
| 2026-05-08 00:34 | -23.47453 | -45.00582 | 24999 ft | 498 kts | 77° |
| 2026-05-08 00:34 | -23.46663 | -44.96896 | 25002 ft | 501 kts | 77° |
| 2026-05-08 00:35 | -23.45866 | -44.93197 | 24997 ft | 503 kts | 77° |
| 2026-05-08 00:35 | -23.45051 | -44.89496 | 24987 ft | 502 kts | 76° |
| 2026-05-08 00:35 | -23.44228 | -44.85801 | 24985 ft | 501 kts | 76° |
| 2026-05-08 00:35 | -23.43404 | -44.82115 | 24558 ft | 503 kts | 76° |
| 2026-05-08 00:36 | -23.42579 | -44.78426 | 23985 ft | 497 kts | 76° |
| 2026-05-08 00:36 | -23.41768 | -44.74794 | 23569 ft | 488 kts | 76° |
| 2026-05-08 00:36 | -23.40975 | -44.71237 | 22916 ft | 482 kts | 76° |
| 2026-05-08 00:36 | -23.40188 | -44.67708 | 22276 ft | 476 kts | 76° |
| 2026-05-08 00:37 | -23.39408 | -44.64214 | 21583 ft | 471 kts | 76° |
| 2026-05-08 00:37 | -23.38645 | -44.60799 | 20922 ft | 467 kts | 76° |
| 2026-05-08 00:37 | -23.37881 | -44.57386 | 20252 ft | 462 kts | 75° |
| 2026-05-08 00:38 | -23.36253 | -44.50680 | 19271 ft | 444 kts | 68° |
| 2026-05-08 00:38 | -23.35085 | -44.47678 | 19058 ft | 430 kts | 65° |
| 2026-05-08 00:38 | -23.33849 | -44.44724 | 18841 ft | 431 kts | 64° |
| 2026-05-08 00:38 | -23.32581 | -44.41734 | 18621 ft | 438 kts | 64° |
| 2026-05-08 00:39 | -23.31308 | -44.38716 | 18398 ft | 438 kts | 64° |
| 2026-05-08 00:39 | -23.30056 | -44.35715 | 18058 ft | 433 kts | 64° |
| 2026-05-08 00:39 | -23.28826 | -44.32738 | 17428 ft | 429 kts | 65° |
| 2026-05-08 00:39 | -23.27618 | -44.29796 | 16790 ft | 424 kts | 65° |
| 2026-05-08 00:40 | -23.26425 | -44.26879 | 16154 ft | 420 kts | 65° |
| 2026-05-08 00:40 | -23.25246 | -44.23995 | 15536 ft | 416 kts | 64° |
| 2026-05-08 00:40 | -23.24077 | -44.21135 | 14922 ft | 412 kts | 64° |
| 2026-05-08 00:40 | -23.22916 | -44.18299 | 14299 ft | 409 kts | 64° |
| 2026-05-08 00:41 | -23.21763 | -44.15484 | 13664 ft | 406 kts | 64° |
| 2026-05-08 00:41 | -23.20617 | -44.12687 | 12988 ft | 403 kts | 64° |
| 2026-05-08 00:41 | -23.19481 | -44.09917 | 12364 ft | 399 kts | 64° |
| 2026-05-08 00:41 | -23.18355 | -44.07174 | 11758 ft | 395 kts | 64° |
| 2026-05-08 00:42 | -23.17241 | -44.04461 | 11322 ft | 388 kts | 64° |
| 2026-05-08 00:42 | -23.16165 | -44.01840 | 11174 ft | 373 kts | 64° |
| 2026-05-08 00:42 | -23.15128 | -43.99314 | 11015 ft | 360 kts | 64° |
| 2026-05-08 00:42 | -23.14125 | -43.96874 | 10859 ft | 348 kts | 63° |
| 2026-05-08 00:43 | -23.13154 | -43.94514 | 10718 ft | 336 kts | 63° |
| 2026-05-08 00:43 | -23.12215 | -43.92232 | 10580 ft | 326 kts | 63° |
| 2026-05-08 00:43 | -23.11303 | -43.90020 | 10452 ft | 316 kts | 63° |
| 2026-05-08 00:43 | -23.10419 | -43.87875 | 10312 ft | 306 kts | 63° |
| 2026-05-08 00:44 | -23.09561 | -43.85795 | 10200 ft | 298 kts | 62° |
| 2026-05-08 00:44 | -23.08727 | -43.83773 | 10075 ft | 289 kts | 62° |
| 2026-05-08 00:44 | -23.07918 | -43.81814 | 10005 ft | 279 kts | 62° |
| 2026-05-08 00:44 | -23.07133 | -43.79914 | 9859 ft | 276 kts | 62° |
| 2026-05-08 00:45 | -23.06331 | -43.77979 | 9414 ft | 281 kts | 62° |
| 2026-05-08 00:45 | -23.05537 | -43.76063 | 9052 ft | 282 kts | 62° |
| 2026-05-08 00:45 | -23.04736 | -43.74127 | 8757 ft | 280 kts | 62° |
| 2026-05-08 00:45 | -23.03929 | -43.72173 | 8467 ft | 279 kts | 62° |
| 2026-05-08 00:46 | -23.03158 | -43.70308 | 8305 ft | 273 kts | 62° |
| 2026-05-08 00:46 | -23.02375 | -43.68418 | 7895 ft | 277 kts | 62° |
| 2026-05-08 00:46 | -23.01579 | -43.66499 | 7470 ft | 281 kts | 62° |
| 2026-05-08 00:46 | -23.00772 | -43.64554 | 7038 ft | 285 kts | 62° |
| 2026-05-08 00:47 | -22.99956 | -43.62588 | 6530 ft | 292 kts | 62° |
| 2026-05-08 00:47 | -22.99088 | -43.60578 | 6124 ft | 294 kts | 60° |
| 2026-05-08 00:47 | -22.98220 | -43.58608 | 6032 ft | 284 kts | 60° |
| 2026-05-08 00:47 | -22.97385 | -43.56714 | 5995 ft | 273 kts | 60° |
| 2026-05-08 00:48 | -22.96585 | -43.54896 | 5963 ft | 260 kts | 60° |
| 2026-05-08 00:48 | -22.95829 | -43.53180 | 5976 ft | 244 kts | 59° |
| 2026-05-08 00:48 | -22.95117 | -43.51555 | 5961 ft | 232 kts | 59° |
| 2026-05-08 00:48 | -22.94505 | -43.49953 | 5702 ft | 238 kts | 67° |
| 2026-05-08 00:49 | -22.94048 | -43.48211 | 5439 ft | 239 kts | 71° |
| 2026-05-08 00:49 | -22.93618 | -43.46436 | 5068 ft | 241 kts | 71° |
| 2026-05-08 00:49 | -22.93199 | -43.44697 | 4759 ft | 235 kts | 70° |
| 2026-05-08 00:49 | -22.92784 | -43.43003 | 4461 ft | 230 kts | 69° |
| 2026-05-08 00:50 | -22.92373 | -43.41348 | 4173 ft | 224 kts | 70° |
| 2026-05-08 00:50 | -22.91972 | -43.39748 | 3916 ft | 216 kts | 70° |
| 2026-05-08 00:50 | -22.91585 | -43.38211 | 3648 ft | 206 kts | 70° |
| 2026-05-08 00:50 | -22.91212 | -43.36740 | 3406 ft | 199 kts | 70° |
| 2026-05-08 00:51 | -22.90847 | -43.35310 | 3183 ft | 195 kts | 70° |
| 2026-05-08 00:51 | -22.90492 | -43.33900 | 2949 ft | 192 kts | 74° |
| 2026-05-08 00:51 | -22.90348 | -43.32494 | 2871 ft | 185 kts | 90° |
| 2026-05-08 00:51 | -22.90442 | -43.31135 | 2730 ft | 179 kts | 92° |
| 2026-05-08 00:52 | -22.90586 | -43.29785 | 2508 ft | 182 kts | 94° |
| 2026-05-08 00:52 | -22.90772 | -43.28401 | 2481 ft | 189 kts | 99° |
| 2026-05-08 00:52 | -22.91128 | -43.27004 | 2563 ft | 195 kts | 105° |
| 2026-05-08 00:52 | -22.91557 | -43.25642 | 2536 ft | 190 kts | 105° |
| 2026-05-08 00:53 | -22.91955 | -43.24350 | 2454 ft | 171 kts | 106° |
| 2026-05-08 00:53 | -22.92365 | -43.23180 | 2303 ft | 162 kts | 108° |
| 2026-05-08 00:53 | -22.92790 | -43.22060 | 2070 ft | 159 kts | 111° |
| 2026-05-08 00:53 | -22.93284 | -43.20983 | 1839 ft | 161 kts | 115° |
| 2026-05-08 00:54 | -22.93831 | -43.19909 | 1500 ft | 162 kts | 113° |
| 2026-05-08 00:54 | -22.94293 | -43.18799 | 1177 ft | 162 kts | 110° |
| 2026-05-08 00:54 | -22.94665 | -43.17662 | 906 ft | 154 kts | 95° |
| 2026-05-08 00:54 | -22.94405 | -43.16626 | 667 ft | 145 kts | 45° |
| 2026-05-08 00:55 | -22.93465 | -43.16227 | 385 ft | 148 kts | 11° |
| 2026-05-08 00:55 | -22.92438 | -43.16185 | 242 ft | 147 kts | 357° |
| 2026-05-08 00:55 | -22.91432 | -43.16259 | 27 ft | 144 kts | 357° |
| 2026-05-08 00:55 | -22.90657 | -43.16307 | 26 ft | 78 kts | 357° |
| 2026-05-08 00:56 | -22.90463 | -43.16343 | 23 ft | 1 kts | 279° |
| 2026-05-08 00:56 | -22.90467 | -43.16365 | 24 ft | 6 kts | 261° |
| 2026-05-08 00:56 | -22.90490 | -43.16414 | 23 ft | 8 kts | 249° |
| 2026-05-08 00:56 | -22.90496 | -43.16479 | 22 ft | 9 kts | 265° |
| 2026-05-08 00:57 | -22.90497 | -43.16485 | 22 ft | 0 kts | 265° |
| 2026-05-08 00:57 | -22.90497 | -43.16486 | 22 ft | 1 kts | 265° |
| 2026-05-08 00:57 | -22.90498 | -43.16512 | 21 ft | 6 kts | 266° |
| 2026-05-08 00:57 | -22.90515 | -43.16553 | 22 ft | 6 kts | 214° |
| 2026-05-08 00:58 | -22.90558 | -43.16556 | 21 ft | 6 kts | 173° |
| 2026-05-08 00:58 | -22.90602 | -43.16551 | 21 ft | 6 kts | 176° |
| 2026-05-08 00:58 | -22.90631 | -43.16550 | 21 ft | 6 kts | 179° |
| 2026-05-08 00:58 | -22.90687 | -43.16547 | 23 ft | 11 kts | 176° |
| 2026-05-08 00:59 | -22.90809 | -43.16541 | 21 ft | 14 kts | 192° |
| 2026-05-08 00:59 | -22.90905 | -43.16546 | 22 ft | 14 kts | 175° |
| 2026-05-08 00:59 | -22.90968 | -43.16542 | 23 ft | 13 kts | 176° |
| 2026-05-08 00:59 | -22.91057 | -43.16536 | 23 ft | 13 kts | 176° |
| 2026-05-08 01:00 | -22.91099 | -43.16554 | 13 ft | 6 kts | 248° |
| 2026-05-08 01:00 | -22.91099 | -43.16586 | 11 ft | 0 kts | 271° |